EST,Max TemperatureF,Mean TemperatureF,Min TemperatureF,Max Dew PointF,MeanDew PointF,Min DewpointF,Max Humidity, Mean Humidity, Min Humidity, Max Sea Level PressureIn, Mean Sea Level PressureIn, Min Sea Level PressureIn, Max VisibilityMiles, Mean VisibilityMiles, Min VisibilityMiles, Max Wind SpeedMPH, Mean Wind SpeedMPH, Max Gust SpeedMPH,PrecipitationIn, CloudCover, Events, WindDirDegrees
2013-11-1,84,77,70,70,67,65,87,73,53,30.02,29.91,29.83,10,10,10,17,8,25,0.00,2,,207
2013-11-2,77,67,57,72,63,52,94,87,51,29.98,29.87,29.80,10,7,1,15,7,,1.69,5,Rain-Thunderstorm,289
2013-11-3,72,62,54,54,47,42,89,59,36,30.21,30.11,29.98,10,10,10,15,8,23,0.00,0,,10
2013-11-4,73,65,57,63,57,48,87,68,52,30.28,30.24,30.20,10,9,4,23,12,33,0.02,6,Rain,37
2013-11-5,71,68,64,66,64,61,94,86,78,30.28,30.24,30.20,10,9,2,21,12,28,0.13,8,Rain,34
2013-11-6,79,72,66,68,66,64,90,83,65,30.20,30.15,30.09,10,8,2,12,7,,0.02,7,Rain,20
2013-11-7,79,72,66,67,65,62,94,83,56,30.09,30.05,29.99,10,5,2,13,4,,0.00,6,,337
2013-11-8,68,60,53,57,48,43,72,63,54,30.23,30.17,30.06,10,10,10,21,12,28,0.00,5,,18
2013-11-9,75,68,62,61,57,51,87,70,48,30.26,30.21,30.18,10,10,10,14,8,21,0.00,1,,37
2013-11-10,75,68,59,65,60,56,94,81,55,30.24,30.19,30.15,10,8,2,14,6,18,0.00,3,,15
2013-11-11,75,65,55,64,59,53,90,79,51,30.22,30.17,30.14,10,9,7,10,4,,0.00,3,,30
2013-11-12,75,70,62,63,57,45,90,69,41,30.17,30.11,30.05,10,9,7,16,5,29,0.00,3,,333
2013-11-13,60,54,48,44,40,36,74,61,52,30.44,30.37,30.19,10,10,10,23,16,36,0.00,6,,28
2013-11-14,64,55,46,59,51,40,90,78,68,30.39,30.33,30.24,10,10,9,16,9,25,0.00,4,,6
2013-11-15,68,62,57,65,60,55,94,88,78,30.25,30.18,30.11,10,10,8,10,3,,0.04,3,Rain,12
2013-11-16,77,70,62,65,63,60,94,86,58,30.20,30.14,30.12,10,8,0,13,5,16,0.00,6,Fog,48
2013-11-17,79,74,68,70,68,64,93,85,72,30.12,30.07,30.01,10,9,2,7,2,,0.47,6,Rain,140
2013-11-18,81,76,70,72,70,66,91,85,69,30.04,29.96,29.91,10,10,3,10,4,,0.27,6,Rain,255
2013-11-19,72,64,55,69,53,42,91,66,50,30.07,30.00,29.93,10,10,10,17,10,29,0.00,6,,16
2013-11-20,70,66,62,63,61,55,94,82,73,30.21,30.13,30.05,10,8,2,16,11,24,0.09,7,Rain,31
2013-11-21,73,68,64,65,63,61,94,86,73,30.27,30.24,30.19,10,7,2,16,10,23,0.01,8,Rain,20
2013-11-22,78,70,62,66,63,59,94,84,58,30.27,30.22,30.15,10,7,0,10,5,,0.00,7,Fog-Rain,35
2013-11-23,82,70,57,65,60,56,93,78,45,30.15,30.10,30.03,10,8,0,12,2,,0.00,3,Fog,328
2013-11-24,66,60,53,59,46,39,81,64,53,30.37,30.25,30.09,10,10,10,18,12,31,0.00,5,,26
2013-11-25,70,62,55,57,53,43,72,66,57,30.34,30.27,30.13,10,10,10,15,12,23,0.00,4,,73
2013-11-26,79,74,68,70,67,59,91,83,73,30.12,29.88,29.71,10,8,2,20,10,29,0.79,6,Rain,168
2013-11-27,73,58,41,69,49,30,88,74,61,30.24,29.86,29.63,10,9,2,22,15,33,0.20,6,Rain,277
2013-11-28,55,44,33,41,35,27,81,70,57,30.43,30.36,30.25,10,10,10,15,10,21,0.00,1,,355
2013-11-29,61,52,44,51,46,39,83,73,60,30.45,30.42,30.39,10,10,10,14,9,24,0.00,3,Rain,13
2013-11-30,60,58,55,55,53,48,88,84,72,30.40,30.34,30.25,10,9,4,18,10,30,0.00,8,,17